createdAt,value
2018-10-21T00:02:13.261Z,101299.00
2018-10-21T00:04:40.777Z,101291.00
2018-10-21T00:07:08.327Z,101299.00
2018-10-21T00:09:35.844Z,101299.00
2018-10-21T00:12:03.628Z,101299.00
2018-10-21T00:14:31.152Z,101294.00
2018-10-21T00:16:58.724Z,101279.00
2018-10-21T00:19:26.233Z,101295.00
2018-10-21T00:21:53.785Z,101288.00
2018-10-21T00:24:21.280Z,101292.00
2018-10-21T00:26:48.805Z,101297.00
2018-10-21T00:29:16.316Z,101297.00
2018-10-21T00:31:43.856Z,101300.00
2018-10-21T00:34:11.374Z,101289.00
2018-10-21T00:36:38.900Z,101292.00
2018-10-21T00:39:09.035Z,101290.00
2018-10-21T00:41:36.556Z,101302.00
2018-10-21T00:44:04.373Z,101304.00
2018-10-21T00:46:31.947Z,101300.00
2018-10-21T00:48:59.521Z,101300.00
2018-10-21T00:51:27.053Z,101289.00
2018-10-21T00:53:54.601Z,101285.00
2018-10-21T00:56:22.151Z,101291.00
2018-10-21T00:58:49.705Z,101285.00
2018-10-21T01:01:17.308Z,101296.00
2018-10-21T01:03:44.868Z,101287.00
2018-10-21T01:06:12.452Z,101285.00
2018-10-21T01:08:40.036Z,101288.00
2018-10-21T01:11:07.569Z,101285.00
2018-10-21T01:13:35.269Z,101290.00
2018-10-21T01:16:02.856Z,101287.00
2018-10-21T01:18:30.409Z,101290.00
2018-10-21T01:20:57.994Z,101290.00
2018-10-21T01:23:25.535Z,101282.00
2018-10-21T01:25:53.076Z,101278.00
2018-10-21T01:28:20.636Z,101280.00
2018-10-21T01:30:48.180Z,101293.00
2018-10-21T01:33:15.782Z,101283.00
2018-10-21T01:35:43.293Z,101281.00
2018-10-21T01:38:10.889Z,101284.00
2018-10-21T01:40:44.459Z,101287.00
2018-10-21T01:43:13.868Z,101283.00
2018-10-21T01:45:41.460Z,101276.00
2018-10-21T01:48:10.121Z,101284.00
2018-10-21T01:50:37.692Z,101272.00
2018-10-21T01:53:06.468Z,101276.00
2018-10-21T01:55:33.999Z,101287.00
2018-10-21T01:58:01.852Z,101278.00
2018-10-21T02:00:30.048Z,101280.00
2018-10-21T02:02:58.192Z,101275.00
2018-10-21T02:05:26.000Z,101286.00
2018-10-21T02:07:53.874Z,101286.00
2018-10-21T02:10:21.423Z,101287.00
2018-10-21T02:12:49.000Z,101273.00
2018-10-21T02:15:16.635Z,101275.00
2018-10-21T02:17:44.129Z,101281.00
2018-10-21T02:20:12.684Z,101275.00
2018-10-21T02:22:41.082Z,101274.00
2018-10-21T02:25:08.655Z,101267.00
2018-10-21T02:27:36.812Z,101272.00
2018-10-21T02:30:08.229Z,101269.00
2018-10-21T02:32:35.999Z,101279.00
2018-10-21T02:35:04.734Z,101275.00
2018-10-21T02:37:32.289Z,101278.00
2018-10-21T02:39:59.845Z,101273.00
2018-10-21T02:42:27.392Z,101274.00
2018-10-21T02:44:54.960Z,101279.00
2018-10-21T02:47:22.496Z,101271.00
2018-10-21T02:49:50.021Z,101282.00
2018-10-21T02:52:17.541Z,101272.00
2018-10-21T02:54:45.071Z,101275.00
2018-10-21T02:57:13.651Z,101266.00
2018-10-21T02:59:41.096Z,101270.00
2018-10-21T03:02:08.629Z,101262.00
2018-10-21T03:04:36.142Z,101272.00
2018-10-21T03:07:03.661Z,101265.00
2018-10-21T03:09:31.460Z,101262.00
2018-10-21T03:11:59.136Z,101262.00
2018-10-21T03:14:26.648Z,101263.00
2018-10-21T03:16:54.198Z,101263.00
2018-10-21T03:19:21.708Z,101261.00
2018-10-21T03:21:49.216Z,101267.00
2018-10-21T03:24:17.041Z,101272.00
2018-10-21T03:26:45.316Z,101268.00
2018-10-21T03:29:12.860Z,101266.00
2018-10-21T03:31:40.387Z,101269.00
2018-10-21T03:34:07.951Z,101274.00
2018-10-21T03:36:35.415Z,101272.00
2018-10-21T03:39:04.663Z,101278.00
2018-10-21T03:41:32.176Z,101273.00
2018-10-21T03:43:59.676Z,101274.00
2018-10-21T03:46:27.223Z,101276.00
2018-10-21T03:48:54.768Z,101283.00
2018-10-21T03:51:22.312Z,101279.00
2018-10-21T03:53:49.853Z,101277.00
2018-10-21T03:56:17.398Z,101286.00
2018-10-21T03:58:44.936Z,101281.00
2018-10-21T04:01:12.480Z,101276.00
2018-10-21T04:03:40.020Z,101276.00
2018-10-21T04:06:07.581Z,101282.00
2018-10-21T04:08:35.141Z,101273.00
2018-10-21T04:11:02.700Z,101283.00
2018-10-21T04:13:30.264Z,101283.00
2018-10-21T04:15:57.848Z,101281.00
2018-10-21T04:18:25.348Z,101284.00
2018-10-21T04:20:52.892Z,101279.00
2018-10-21T04:23:20.428Z,101292.00
2018-10-21T04:25:47.947Z,101279.00
2018-10-21T04:28:15.557Z,101287.00
2018-10-21T04:30:43.291Z,101290.00
2018-10-21T04:33:16.920Z,101284.00
2018-10-21T04:35:44.469Z,101281.00
2018-10-21T04:38:31.884Z,101288.00
2018-10-21T04:40:59.419Z,101288.00
2018-10-21T04:43:26.960Z,101289.00
2018-10-21T04:45:54.530Z,101282.00
2018-10-21T04:48:21.988Z,101290.00
2018-10-21T04:50:49.503Z,101289.00
2018-10-21T04:53:17.045Z,101290.00
2018-10-21T04:55:44.563Z,101285.00
2018-10-21T04:58:12.207Z,101297.00
2018-10-21T05:00:39.736Z,101300.00
2018-10-21T05:03:07.211Z,101297.00
2018-10-21T05:05:34.711Z,101303.00
2018-10-21T05:08:02.215Z,101304.00
2018-10-21T05:10:31.707Z,101313.00
2018-10-21T05:12:59.239Z,101304.00
2018-10-21T05:15:27.990Z,101307.00
2018-10-21T05:17:55.581Z,101306.00
2018-10-21T05:20:23.119Z,101312.00
2018-10-21T05:22:50.632Z,101319.00
2018-10-21T05:25:18.196Z,101321.00
2018-10-21T05:27:45.752Z,101323.00
2018-10-21T05:30:13.728Z,101322.00
2018-10-21T05:32:41.588Z,101311.00
2018-10-21T05:35:10.937Z,101311.00
2018-10-21T05:37:38.850Z,101313.00
2018-10-21T05:40:09.337Z,101320.00
2018-10-21T05:42:36.784Z,101316.00
2018-10-21T05:45:05.232Z,101322.00
2018-10-21T05:47:33.311Z,101314.00
2018-10-21T05:50:00.860Z,101323.00
2018-10-21T05:52:28.400Z,101317.00
2018-10-21T05:54:55.936Z,101320.00
2018-10-21T05:57:23.487Z,101334.00
2018-10-21T05:59:51.045Z,101322.00
2018-10-21T06:02:18.587Z,101333.00
2018-10-21T06:04:46.144Z,101333.00
2018-10-21T06:07:13.688Z,101342.00
2018-10-21T06:09:41.252Z,101346.00
2018-10-21T06:12:08.805Z,101332.00
2018-10-21T06:14:36.360Z,101346.00
2018-10-21T06:17:13.096Z,101352.00
2018-10-21T06:19:44.504Z,101349.00
2018-10-21T06:22:12.191Z,101352.00
2018-10-21T06:24:39.659Z,101356.00
2018-10-21T06:27:07.198Z,101368.00
2018-10-21T06:29:34.735Z,101372.00
2018-10-21T06:32:02.288Z,101370.00
2018-10-21T06:34:29.812Z,101381.00
2018-10-21T06:36:57.339Z,101388.00
2018-10-21T06:39:24.880Z,101382.00
2018-10-21T06:41:52.438Z,101392.00
2018-10-21T06:44:19.988Z,101389.00
2018-10-21T06:46:47.524Z,101393.00
2018-10-21T06:49:15.028Z,101391.00
2018-10-21T06:51:42.544Z,101384.00
2018-10-21T06:54:10.064Z,101397.00
2018-10-21T06:56:37.661Z,101394.00
2018-10-21T06:59:05.387Z,101394.00
2018-10-21T07:01:33.660Z,101399.00
2018-10-21T07:04:01.256Z,101401.00
2018-10-21T07:06:29.323Z,101394.00
2018-10-21T07:08:59.369Z,101387.00
2018-10-21T07:11:26.894Z,101402.00
2018-10-21T07:13:54.403Z,101399.00
2018-10-21T07:16:22.017Z,101401.00
2018-10-21T07:18:49.925Z,101401.00
2018-10-21T07:21:17.782Z,101403.00
2018-10-21T07:23:45.541Z,101409.00
2018-10-21T07:26:13.060Z,101407.00
2018-10-21T07:28:40.584Z,101408.00
2018-10-21T07:31:08.089Z,101408.00
2018-10-21T07:33:35.580Z,101413.00
2018-10-21T07:36:03.360Z,101412.00
2018-10-21T07:38:30.859Z,101409.00
2018-10-21T07:40:58.377Z,101422.00
2018-10-21T07:43:25.890Z,101408.00
2018-10-21T07:45:53.458Z,101423.00
2018-10-21T07:48:21.014Z,101415.00
2018-10-21T07:50:48.569Z,101426.00
2018-10-21T07:53:16.120Z,101422.00
2018-10-21T07:55:43.740Z,101423.00
2018-10-21T07:58:11.637Z,101420.00
2018-10-21T08:00:39.201Z,101429.00
2018-10-21T08:03:07.000Z,101426.00
2018-10-21T08:05:52.000Z,101426.00
2018-10-21T08:08:20.860Z,101425.00
2018-10-21T08:10:48.439Z,101434.00
2018-10-21T08:13:18.167Z,101425.00
2018-10-21T08:15:45.821Z,101434.00
2018-10-21T08:18:14.079Z,101441.00
2018-10-21T08:20:42.770Z,101431.00
2018-10-21T08:23:11.647Z,101427.00
2018-10-21T08:25:39.284Z,101430.00
2018-10-21T08:28:08.883Z,101441.00
2018-10-21T08:30:36.466Z,101438.00
2018-10-21T08:33:04.701Z,101434.00
2018-10-21T08:35:32.275Z,101435.00
2018-10-21T08:37:59.851Z,101441.00
2018-10-21T08:40:27.667Z,101441.00
2018-10-21T08:42:55.203Z,101437.00
2018-10-21T08:45:22.972Z,101443.00
2018-10-21T08:47:50.524Z,101440.00
2018-10-21T08:50:18.064Z,101442.00
2018-10-21T08:52:45.619Z,101440.00
2018-10-21T08:55:13.201Z,101437.00
2018-10-21T08:57:40.980Z,101431.00
2018-10-21T09:00:11.811Z,101439.00
2018-10-21T09:02:39.980Z,101431.00
2018-10-21T09:05:09.296Z,101442.00
2018-10-21T09:07:36.832Z,101438.00
2018-10-21T09:10:05.857Z,101439.00
2018-10-21T09:12:33.424Z,101439.00
2018-10-21T09:15:01.050Z,101442.00
2018-10-21T09:17:28.550Z,101447.00
2018-10-21T09:19:56.208Z,101443.00
2018-10-21T09:22:23.748Z,101438.00
2018-10-21T09:24:51.297Z,101436.00
2018-10-21T09:27:18.853Z,101441.00
2018-10-21T09:29:46.401Z,101441.00
2018-10-21T09:32:13.944Z,101443.00
2018-10-21T09:34:41.485Z,101438.00
2018-10-21T09:37:09.067Z,101455.00
2018-10-21T09:39:36.600Z,101442.00
2018-10-21T09:42:04.364Z,101445.00
2018-10-21T09:44:31.906Z,101439.00
2018-10-21T09:46:59.485Z,101438.00
2018-10-21T09:49:27.070Z,101438.00
2018-10-21T09:51:54.646Z,101447.00
2018-10-21T09:54:22.180Z,101433.00
2018-10-21T09:56:49.728Z,101445.00
2018-10-21T09:59:17.292Z,101443.00
2018-10-21T10:01:50.708Z,101449.00
2018-10-21T10:04:18.303Z,101443.00
2018-10-21T10:06:45.856Z,101427.00
2018-10-21T10:09:13.628Z,101432.00
2018-10-21T10:11:42.008Z,101440.00
2018-10-21T10:14:09.728Z,101430.00
2018-10-21T10:16:37.504Z,101424.00
2018-10-21T10:19:05.249Z,101434.00
2018-10-21T10:21:32.820Z,101422.00
2018-10-21T10:24:00.554Z,101413.00
2018-10-21T10:26:28.096Z,101424.00
2018-10-21T10:28:55.635Z,101423.00
2018-10-21T10:31:23.188Z,101427.00
2018-10-21T10:33:50.723Z,101431.00
2018-10-21T10:36:18.391Z,101427.00
2018-10-21T10:38:45.857Z,101427.00
2018-10-21T10:41:13.451Z,101424.00
2018-10-21T10:43:40.988Z,101427.00
2018-10-21T10:46:08.529Z,101410.00
2018-10-21T10:48:36.036Z,101406.00
2018-10-21T10:51:03.555Z,101410.00
2018-10-21T10:53:31.077Z,101401.00
2018-10-21T10:55:58.601Z,101401.00
2018-10-21T10:58:26.109Z,101405.00
2018-10-21T11:00:53.654Z,101409.00
2018-10-21T11:03:21.158Z,101404.00
2018-10-21T11:05:48.668Z,101405.00
2018-10-21T11:08:16.185Z,101413.00
2018-10-21T11:10:43.720Z,101399.00
2018-10-21T11:13:11.360Z,101398.00
2018-10-21T11:15:38.817Z,101396.00
2018-10-21T11:18:06.356Z,101411.00
2018-10-21T11:20:33.909Z,101394.00
2018-10-21T11:23:01.468Z,101391.00
2018-10-21T11:25:29.032Z,101389.00
2018-10-21T11:27:56.607Z,101388.00
2018-10-21T11:30:24.153Z,101386.00
2018-10-21T11:32:51.721Z,101378.00
2018-10-21T11:35:19.275Z,101378.00
2018-10-21T11:37:47.083Z,101367.00
2018-10-21T11:40:14.459Z,101368.00
2018-10-21T11:42:41.984Z,101371.00
2018-10-21T11:45:09.609Z,101372.00
2018-10-21T11:47:37.131Z,101375.00
2018-10-21T11:50:05.648Z,101376.00
2018-10-21T11:52:33.193Z,101377.00
2018-10-21T11:55:00.703Z,101365.00
2018-10-21T11:57:28.224Z,101380.00
2018-10-21T11:59:55.736Z,101372.00
2018-10-21T12:02:23.267Z,101381.00
2018-10-21T12:04:50.775Z,101381.00
2018-10-21T12:07:18.335Z,101377.00
2018-10-21T12:09:45.800Z,101376.00
2018-10-21T12:12:13.308Z,101375.00
2018-10-21T12:14:40.811Z,101382.00
2018-10-21T12:17:08.317Z,101374.00
2018-10-21T12:19:35.828Z,101363.00
2018-10-21T12:22:03.536Z,101367.00
2018-10-21T12:24:31.036Z,101367.00
2018-10-21T12:26:58.557Z,101369.00
2018-10-21T12:29:26.051Z,101374.00
2018-10-21T12:31:53.566Z,101364.00
2018-10-21T12:34:21.073Z,101367.00
2018-10-21T12:36:48.604Z,101357.00
2018-10-21T12:39:22.144Z,101362.00
2018-10-21T12:41:49.655Z,101359.00
2018-10-21T12:44:17.165Z,101350.00
2018-10-21T12:46:44.683Z,101352.00
2018-10-21T12:49:12.243Z,101348.00
2018-10-21T12:51:39.699Z,101358.00
2018-10-21T12:54:07.320Z,101342.00
2018-10-21T12:56:34.719Z,101338.00
2018-10-21T12:59:02.245Z,101338.00
2018-10-21T13:01:29.799Z,101337.00
2018-10-21T13:03:57.480Z,101349.00
2018-10-21T13:06:25.017Z,101342.00
2018-10-21T13:08:52.536Z,101336.00
2018-10-21T13:11:20.048Z,101335.00
2018-10-21T13:13:47.567Z,101326.00
2018-10-21T13:16:15.131Z,101317.00
2018-10-21T13:18:42.589Z,101321.00
2018-10-21T13:21:10.091Z,101327.00
2018-10-21T13:23:37.605Z,101315.00
2018-10-21T13:26:05.113Z,101319.00
2018-10-21T13:28:32.624Z,101318.00
2018-10-21T13:31:00.186Z,101311.00
2018-10-21T13:33:27.680Z,101306.00
2018-10-21T13:35:55.188Z,101306.00
2018-10-21T13:38:22.712Z,101307.00
2018-10-21T13:40:50.228Z,101306.00
2018-10-21T13:43:17.834Z,101306.00
2018-10-21T13:45:45.340Z,101301.00
2018-10-21T13:48:12.899Z,101303.00
2018-10-21T13:50:40.563Z,101300.00
2018-10-21T13:53:08.194Z,101296.00
2018-10-21T13:55:36.744Z,101301.00
2018-10-21T13:58:04.849Z,101298.00
2018-10-21T14:00:32.461Z,101291.00
2018-10-21T14:02:59.980Z,101294.00
2018-10-21T14:05:27.524Z,101292.00
2018-10-21T14:07:55.097Z,101299.00
2018-10-21T14:10:22.656Z,101291.00
2018-10-21T14:12:50.183Z,101302.00
2018-10-21T14:15:17.813Z,101301.00
2018-10-21T14:17:45.307Z,101293.00
2018-10-21T14:20:12.872Z,101295.00
2018-10-21T14:22:40.428Z,101299.00
2018-10-21T14:25:08.077Z,101298.00
2018-10-21T14:27:35.832Z,101300.00
2018-10-21T14:30:04.722Z,101295.00
2018-10-21T14:32:32.203Z,101290.00
2018-10-21T14:34:59.749Z,101296.00
2018-10-21T14:37:27.363Z,101294.00
2018-10-21T14:39:54.916Z,101301.00
2018-10-21T14:42:22.473Z,101289.00
2018-10-21T14:44:50.023Z,101294.00
2018-10-21T14:47:17.593Z,101288.00
2018-10-21T14:49:45.145Z,101287.00
2018-10-21T14:52:12.700Z,101280.00
2018-10-21T14:54:40.260Z,101282.00
2018-10-21T14:57:07.965Z,101279.00
2018-10-21T14:59:35.461Z,101281.00
2018-10-21T15:02:03.241Z,101268.00
2018-10-21T15:04:30.793Z,101270.00
2018-10-21T15:06:58.372Z,101274.00
2018-10-21T15:09:25.936Z,101279.00
2018-10-21T15:11:53.460Z,101277.00
2018-10-21T15:14:21.024Z,101276.00
2018-10-21T15:16:48.585Z,101277.00
2018-10-21T15:19:16.136Z,101269.00
2018-10-21T15:21:43.688Z,101269.00
2018-10-21T15:24:11.268Z,101282.00
2018-10-21T15:26:38.812Z,101276.00
2018-10-21T15:29:06.417Z,101269.00
2018-10-21T15:31:33.957Z,101264.00
2018-10-21T15:34:01.576Z,101265.00
2018-10-21T15:36:29.114Z,101264.00
2018-10-21T15:38:56.703Z,101267.00
2018-10-21T15:41:24.271Z,101259.00
2018-10-21T15:43:51.842Z,101263.00
2018-10-21T15:46:19.585Z,101268.00
2018-10-21T15:48:47.125Z,101269.00
2018-10-21T15:51:14.627Z,101259.00
2018-10-21T15:53:42.160Z,101258.00
2018-10-21T15:56:09.764Z,101253.00
2018-10-21T15:58:37.228Z,101264.00
2018-10-21T16:01:05.024Z,101261.00
2018-10-21T16:03:32.561Z,101249.00
2018-10-21T16:06:00.078Z,101255.00
2018-10-21T16:08:27.592Z,101252.00
2018-10-21T16:10:55.120Z,101263.00
2018-10-21T16:13:22.648Z,101253.00
2018-10-21T16:15:50.191Z,101260.00
2018-10-21T16:18:17.698Z,101257.00
2018-10-21T16:20:45.209Z,101258.00
2018-10-21T16:23:12.733Z,101270.00
2018-10-21T16:25:40.348Z,101267.00
2018-10-21T16:28:07.820Z,101263.00
2018-10-21T16:30:35.329Z,101261.00
2018-10-21T16:33:03.055Z,101263.00
2018-10-21T16:35:30.560Z,101253.00
2018-10-21T16:37:58.054Z,101266.00
2018-10-21T16:40:25.567Z,101259.00
2018-10-21T16:42:53.063Z,101259.00
2018-10-21T16:45:20.591Z,101260.00
2018-10-21T16:47:48.107Z,101252.00
2018-10-21T16:50:16.350Z,101257.00
2018-10-21T16:52:44.632Z,101264.00
2018-10-21T16:55:12.696Z,101265.00
2018-10-21T16:57:40.278Z,101263.00
2018-10-21T17:00:12.414Z,101251.00
2018-10-21T17:02:40.073Z,101263.00
2018-10-21T17:05:07.902Z,101257.00
2018-10-21T17:07:35.707Z,101255.00
2018-10-21T17:10:03.582Z,101259.00
2018-10-21T17:12:30.747Z,101251.00
2018-10-21T17:14:58.285Z,101262.00
2018-10-21T17:17:25.767Z,101260.00
2018-10-21T17:19:53.283Z,101256.00
2018-10-21T17:22:20.776Z,101259.00
2018-10-21T17:24:48.636Z,101262.00
2018-10-21T17:27:16.164Z,101256.00
2018-10-21T17:29:43.668Z,101260.00
2018-10-21T17:32:11.170Z,101263.00
2018-10-21T17:34:38.686Z,101262.00
2018-10-21T17:37:06.339Z,101252.00
2018-10-21T17:39:33.787Z,101254.00
2018-10-21T17:42:01.816Z,101256.00
2018-10-21T17:44:29.327Z,101257.00
2018-10-21T17:46:56.881Z,101260.00
2018-10-21T17:49:24.420Z,101253.00
2018-10-21T17:51:51.957Z,101247.00
2018-10-21T17:54:19.496Z,101253.00
2018-10-21T17:56:52.835Z,101253.00
2018-10-21T17:59:26.959Z,101251.00
2018-10-21T18:04:56.481Z,101257.00
2018-10-21T18:07:24.063Z,101259.00
2018-10-21T18:09:55.281Z,101261.00
2018-10-21T18:12:22.794Z,101251.00
2018-10-21T18:14:50.327Z,101255.00
2018-10-21T18:17:17.861Z,101251.00
2018-10-21T18:19:45.424Z,101244.00
2018-10-21T18:22:13.031Z,101252.00
2018-10-21T18:24:47.234Z,101248.00
2018-10-21T18:27:14.752Z,101257.00
2018-10-21T18:29:42.312Z,101255.00
2018-10-21T18:32:10.191Z,101252.00
2018-10-21T18:34:37.739Z,101261.00
2018-10-21T18:37:28.852Z,101251.00
2018-10-21T18:39:56.410Z,101244.00
2018-10-21T18:42:23.952Z,101247.00
2018-10-21T18:44:54.664Z,101246.00
2018-10-21T18:47:22.186Z,101257.00
2018-10-21T18:49:49.695Z,101250.00
2018-10-21T18:52:17.226Z,101253.00
2018-10-21T18:54:44.736Z,101257.00
2018-10-21T18:57:12.444Z,101254.00
2018-10-21T18:59:39.953Z,101253.00
2018-10-21T19:02:07.632Z,101247.00
2018-10-21T19:04:35.153Z,101248.00
2018-10-21T19:07:02.725Z,101252.00
2018-10-21T19:09:30.214Z,101255.00
2018-10-21T19:11:57.712Z,101257.00
2018-10-21T19:14:25.246Z,101257.00
2018-10-21T19:16:52.750Z,101260.00
2018-10-21T19:19:20.276Z,101261.00
2018-10-21T19:21:47.790Z,101245.00
2018-10-21T19:24:15.350Z,101248.00
2018-10-21T19:26:42.860Z,101244.00
2018-10-21T19:29:10.359Z,101246.00
2018-10-21T19:31:37.946Z,101248.00
2018-10-21T19:34:05.499Z,101252.00
2018-10-21T19:36:33.010Z,101251.00
2018-10-21T19:39:00.521Z,101237.00
2018-10-21T19:41:28.025Z,101256.00
2018-10-21T19:43:55.520Z,101247.00
2018-10-21T19:46:23.027Z,101251.00
2018-10-21T19:48:50.531Z,101250.00
2018-10-21T19:51:18.127Z,101249.00
2018-10-21T19:53:45.660Z,101258.00
2018-10-21T19:56:13.174Z,101251.00
2018-10-21T19:58:40.729Z,101260.00
2018-10-21T20:01:08.273Z,101261.00
2018-10-21T20:03:35.736Z,101255.00
2018-10-21T20:06:03.248Z,101261.00
2018-10-21T20:08:30.800Z,101250.00
2018-10-21T20:10:58.304Z,101250.00
2018-10-21T20:13:25.803Z,101256.00
2018-10-21T20:15:53.318Z,101264.00
2018-10-21T20:18:20.901Z,101260.00
2018-10-21T20:20:48.339Z,101254.00
2018-10-21T20:23:15.848Z,101252.00
2018-10-21T20:25:43.355Z,101248.00
2018-10-21T20:28:10.933Z,101253.00
2018-10-21T20:31:05.617Z,101245.00
2018-10-21T20:33:33.087Z,101243.00
2018-10-21T20:36:22.453Z,101245.00
2018-10-21T20:38:49.916Z,101234.00
2018-10-21T20:41:39.210Z,101245.00
2018-10-21T20:44:06.693Z,101241.00
2018-10-21T20:46:34.222Z,101240.00
2018-10-21T20:49:01.720Z,101233.00
2018-10-21T20:51:29.357Z,101242.00
2018-10-21T20:53:56.786Z,101237.00
2018-10-21T20:56:24.275Z,101239.00
2018-10-21T20:58:51.789Z,101245.00
2018-10-21T21:01:19.287Z,101229.00
2018-10-21T21:03:46.771Z,101238.00
2018-10-21T21:06:14.342Z,101234.00
2018-10-21T21:08:41.799Z,101242.00
2018-10-21T21:11:09.987Z,101236.00
2018-10-21T21:13:37.492Z,101237.00
2018-10-21T21:16:05.428Z,101232.00
2018-10-21T21:18:32.936Z,101223.00
2018-10-21T21:21:00.466Z,101223.00
2018-10-21T21:23:27.976Z,101230.00
2018-10-21T21:25:55.487Z,101231.00
2018-10-21T21:28:23.063Z,101224.00
2018-10-21T21:30:50.572Z,101231.00
2018-10-21T21:33:18.147Z,101225.00
2018-10-21T21:35:45.668Z,101225.00
2018-10-21T21:38:13.172Z,101223.00
2018-10-21T21:40:40.912Z,101227.00
2018-10-21T21:43:08.416Z,101220.00
2018-10-21T21:45:35.964Z,101230.00
2018-10-21T21:48:04.018Z,101227.00
2018-10-21T21:50:31.528Z,101212.00
2018-10-21T21:52:59.063Z,101221.00
2018-10-21T21:55:26.565Z,101211.00
2018-10-21T21:57:54.123Z,101209.00
2018-10-21T22:00:21.600Z,101201.00
2018-10-21T22:02:49.114Z,101203.00
2018-10-21T22:05:16.644Z,101203.00
2018-10-21T22:07:45.247Z,101194.00
2018-10-21T22:10:42.452Z,101200.00
2018-10-21T22:13:09.948Z,101194.00
2018-10-21T22:15:37.448Z,101180.00
2018-10-21T22:18:05.093Z,101176.00
2018-10-21T22:20:32.588Z,101180.00
2018-10-21T22:23:00.105Z,101181.00
2018-10-21T22:25:27.613Z,101180.00
2018-10-21T22:27:55.194Z,101171.00
2018-10-21T22:30:22.668Z,101185.00
2018-10-21T22:32:50.171Z,101180.00
2018-10-21T22:35:17.676Z,101183.00
2018-10-21T22:37:45.192Z,101177.00
2018-10-21T22:40:12.781Z,101183.00
2018-10-21T22:42:40.223Z,101177.00
2018-10-21T22:45:08.452Z,101180.00
2018-10-21T22:50:11.145Z,101182.00
2018-10-21T22:52:38.783Z,101184.00
2018-10-21T22:55:06.896Z,101177.00
2018-10-21T22:57:34.468Z,101167.00
2018-10-21T23:00:02.105Z,101169.00
2018-10-21T23:02:29.604Z,101165.00
2018-10-21T23:04:57.179Z,101169.00
2018-10-21T23:07:24.721Z,101172.00
2018-10-21T23:09:52.243Z,101176.00
2018-10-21T23:12:19.807Z,101175.00
2018-10-21T23:14:47.372Z,101175.00
2018-10-21T23:17:14.925Z,101173.00
2018-10-21T23:19:49.709Z,101173.00
2018-10-21T23:22:17.396Z,101170.00
2018-10-21T23:24:44.860Z,101180.00
2018-10-21T23:27:12.935Z,101169.00
2018-10-21T23:29:41.204Z,101173.00
2018-10-21T23:32:08.783Z,101181.00
2018-10-21T23:34:36.316Z,101178.00
2018-10-21T23:37:04.148Z,101174.00
2018-10-21T23:39:31.692Z,101170.00
2018-10-21T23:42:00.022Z,101182.00
2018-10-21T23:44:27.553Z,101180.00
2018-10-21T23:46:55.108Z,101176.00
2018-10-21T23:49:22.666Z,101173.00
2018-10-21T23:51:50.228Z,101174.00
2018-10-21T23:54:17.832Z,101158.00
2018-10-21T23:56:45.352Z,101173.00
2018-10-21T23:59:12.896Z,101162.00
